Laramie Regional Airport Laramie US
ICAO: KLAR
IATA: LAR
Category: Medium
Scheduled Services: Yes

Elevation: 7284 ft
TransAlt. 18000 ft.

Airport Communications:
ASOS:135.475
DENVER CNTR:125.9
CASPER RDO:122.6
CTAF/UNICOM:123.05

KLAR Zoom In..

If you have problems with the map follow the link
https://www.worldairports.se/pages/airport.php?
ICAO=KLAR

Runways:

(A) RW 03 length 8502 ft width 150 ft
---- / hdg 33

(B) RW 12 length 6300 ft width 100 ft
---- / hdg 122

(C) RW 21 length 8502 ft width 150 ft
---- / hdg 213

(D) RW 30 length 6300 ft width 100 ft
---- / hdg 302

Location; KLAR
Day. 18 / Time. 23.53 Zulu
* Altimeter: 30.18
* Temperature: 10° c. 50°f.
* Wind from: 280° Speed 12 kn.
Dewpoint: -03° c.
Visibility: 10 Statute Miles.
Clouds: Scattered 9500 ft.

KLAR 182353Z AUTO 28012KT 10SM SCT095 10/M03 A3018 RMK AO2 SLP178 T01001028 10156 20100 58002


Wind From 280°
Speed 12 kn.

 
 
jpsmedia.com for Web Design worldairports.se 2018   terms of use